Casper, WY (82601)

12:32 AM MDT on July 04, 2015 (GMT -0600)
CY Ave | | Change Station
CLOSE
Current Station
Personal Weather Station
Location: Casper, WY
Elevation: 5227 ft
Nearby Weather Stations

Elev 5227 ft 42.83 °N, 106.35 °W | Updated 2 minutes ago

Partly Cloudy
Partly Cloudy
70.2 °F
Feels Like 77 °F
N
0.0
Wind Variable Wind from North
Gusts 0.0 mph

Today
High -- | Low -- °F
--% Chance of Precip.
Yesterday
High -- | Low -- °F
Precip. -- in
5:32 AM 8:47 PM
Waning Gibbous, 94% visible
Pressure 29.81 in
Visibility 10.0 miles
Clouds Clear
Heat Index 77 °F
Dew Point 47 °F
Humidity 43%
Rainfall 0.00 in
Snow Depth Not available.
UV 0 out of 12
Pollen 4.90 out of 12
Air Quality Not available.
Flu Activity Not available.
METAR KCPR 040553Z AUTO 07007KT 10SM CLR 19/12 A3002 RMK AO2 SLP092 60000 T01890117 10261 20183 50007

More Conditions Fewer Conditions

Pressure 29.81 in
Visibility 10.0 miles
Clouds Clear
Heat Index 77 °F
Dew Point 47 °F
Humidity 43%
Rainfall 0.00 in
Snow Depth Not available.
UV 0 out of 12
Pollen 4.90 out of 12
Air Quality Not available.
Flu Activity Not available.
METAR KCPR 040553Z AUTO 07007KT 10SM CLR 19/12 A3002 RMK AO2 SLP092 60000 T01890117 10261 20183 50007

More Conditions Fewer Conditions

10-Day Weather Forecast

×

Almanac

Astronomy

Jul. 04, 2015 Rise Set
Actual Time
Civil Twilight
Nautical Twilight
Astronomical Twilight
Moon
Length of Visible Light
Length of Day
Tomorrow will be .
, % of the Moon is Illuminated

Today's Extremes

State Highs State Lows

Community

WunderPhotos

Upload Photos

1,834,926 photos uploaded!

WunderBlogs® & News

Nearby

Air Quality

  Air Quality AQ Index Pollutant
Not available.

Snow Depth

Station Depth Elevation

Earthquake Activity

City Distance Mag. Time & Date
Minimum magnitude displayed is 2.5.

Coastal Water Temperatures

Place Temperature

Stations

Nearby Weather Stations

Station Location Temp. Windchill Dew Point Humidity Wind Precip. Elev Updated Type